Time;durP1;ratioP1;P1;durP2;ratioP2;P2;SDS_P1;SDS_P2;PMS_P1;PMS_P2;Temp;Humidity;BMP_temperature;BMP_pressure;BME280_temperature;BME280_humidity;BME280_pressure;Samples;Min_cycle;Max_cycle;Signal;HPM_P1;HPM_P2
2021/08/07 00:00:08;;;;;;;4.10;2.70;;;;;;;13.80;100.00;95174.88;1030926;28;20030;-74
2021/08/07 00:00:39;;;;;;;4.00;2.80;;;;;;;13.79;100.00;95178.59;1038973;28;20060;-74
2021/08/07 00:01:09;;;;;;;5.80;3.00;;;;;;;13.71;100.00;95167.94;1038830;28;20036;-73
2021/08/07 00:01:40;;;;;;;6.53;3.15;;;;;;;13.78;100.00;95182.31;1042329;28;20037;-72
2021/08/07 00:02:10;;;;;;;6.38;3.47;;;;;;;13.77;100.00;95177.31;1038378;28;20538;-74
2021/08/07 00:02:41;;;;;;;4.05;2.85;;;;;;;13.71;100.00;95184.53;1030913;28;20041;-74
2021/08/07 00:03:11;;;;;;;6.70;3.28;;;;;;;13.74;100.00;95189.22;1030820;28;20026;-73
2021/08/07 00:03:41;;;;;;;3.72;2.97;;;;;;;13.74;100.00;95185.81;1030592;28;20030;-71
2021/08/07 00:04:12;;;;;;;5.85;2.90;;;;;;;13.73;100.00;95186.91;1029284;28;20555;-73
2021/08/07 00:04:42;;;;;;;5.70;3.00;;;;;;;13.71;100.00;95183.78;1025462;28;20684;-72
2021/08/07 00:05:13;;;;;;;5.38;3.10;;;;;;;13.64;100.00;95177.03;1030825;28;20108;-72
2021/08/07 00:05:43;;;;;;;4.15;3.00;;;;;;;13.70;100.00;95188.25;1033729;28;20125;-73
2021/08/07 00:06:14;;;;;;;8.38;3.10;;;;;;;13.70;100.00;95184.84;1033118;28;20033;-73
2021/08/07 00:06:44;;;;;;;4.97;2.90;;;;;;;13.67;100.00;95184.34;1030824;28;21234;-73
2021/08/07 00:07:15;;;;;;;6.57;3.28;;;;;;;13.64;100.00;95177.03;1030715;28;20510;-71
2021/08/07 00:07:45;;;;;;;5.90;3.45;;;;;;;13.59;100.00;95176.38;1036548;28;20032;-73
2021/08/07 00:08:15;;;;;;;5.72;3.47;;;;;;;13.62;100.00;95178.44;1038794;28;20018;-74
2021/08/07 00:08:46;;;;;;;6.75;3.38;;;;;;;13.58;100.00;95170.34;1036685;28;20026;-74
2021/08/07 00:09:17;;;;;;;5.88;3.10;;;;;;;13.59;100.00;95173.75;1034952;28;20084;-74
2021/08/07 00:09:47;;;;;;;5.80;3.35;;;;;;;13.55;100.00;95173.56;1031938;28;20045;-74
2021/08/07 00:10:18;;;;;;;4.72;3.33;;;;;;;13.58;100.00;95180.06;1030874;28;20038;-74
2021/08/07 00:10:48;;;;;;;6.72;3.40;;;;;;;13.57;100.00;95175.88;1038934;28;20025;-74
2021/08/07 00:11:19;;;;;;;4.45;2.85;;;;;;;13.54;100.00;95174.59;1046978;28;20031;-74
2021/08/07 00:11:49;;;;;;;5.50;2.90;;;;;;;13.52;100.00;95182.03;1046335;28;20481;-73
2021/08/07 00:12:20;;;;;;;4.63;3.30;;;;;;;13.42;100.00;95166.44;1042771;28;20113;-74
2021/08/07 00:12:50;;;;;;;4.03;3.05;;;;;;;13.44;100.00;95172.94;1030773;28;20046;-73
2021/08/07 00:13:20;;;;;;;6.15;3.20;;;;;;;13.48;100.00;95180.28;1030547;28;20500;-74
2021/08/07 00:13:51;;;;;;;3.53;3.08;;;;;;;13.36;100.00;95165.75;1031091;28;20031;-74
2021/08/07 00:14:21;;;;;;;5.75;3.13;;;;;;;13.46;100.00;95185.06;1032127;28;20038;-74
2021/08/07 00:14:52;;;;;;;4.80;3.17;;;;;;;13.45;100.00;95181.66;1034698;28;20025;-74
2021/08/07 00:15:22;;;;;;;4.45;2.97;;;;;;;13.44;100.00;95186.13;1030960;28;20042;-74
2021/08/07 00:15:53;;;;;;;5.38;3.17;;;;;;;13.43;100.00;95184.59;1037614;28;20045;-73
2021/08/07 00:16:23;;;;;;;5.10;3.00;;;;;;;13.42;100.00;95184.88;1043401;28;20041;-74
2021/08/07 00:16:53;;;;;;;6.82;3.75;;;;;;;13.42;100.00;95188.28;1038948;28;20033;-71
2021/08/07 00:17:24;;;;;;;7.53;3.28;;;;;;;13.42;100.00;95182.25;1039016;28;20048;-74
2021/08/07 00:17:54;;;;;;;7.57;2.72;;;;;;;13.38;100.00;95181.25;1038458;28;20029;-74
2021/08/07 00:18:25;;;;;;;5.00;3.08;;;;;;;13.36;100.00;95173.66;1038331;28;20064;-74
2021/08/07 00:18:55;;;;;;;4.97;3.22;;;;;;;13.43;100.00;95178.53;1034997;28;20076;-74
2021/08/07 00:19:26;;;;;;;5.53;3.03;;;;;;;13.44;100.00;95185.34;1031624;28;20041;-74
2021/08/07 00:19:56;;;;;;;5.85;3.00;;;;;;;13.42;100.00;95185.66;1034686;28;20033;-74
2021/08/07 00:20:27;;;;;;;7.07;3.10;;;;;;;13.42;100.00;95177.75;1038872;28;20111;-74
2021/08/07 00:20:57;;;;;;;5.93;3.13;;;;;;;13.40;100.00;95174.63;1038950;28;20033;-74
2021/08/07 00:21:27;;;;;;;4.22;3.40;;;;;;;13.37;100.00;95175.22;1027362;28;20027;-73
2021/08/07 00:21:58;;;;;;;8.20;3.47;;;;;;;13.42;100.00;95177.75;1029090;28;20029;-73
2021/08/07 00:22:28;;;;;;;7.32;3.45;;;;;;;13.42;100.00;95180.38;1030779;28;20030;-73
2021/08/07 00:22:59;;;;;;;5.95;3.38;;;;;;;13.44;100.00;95186.13;1028466;28;20116;-73
2021/08/07 00:23:29;;;;;;;9.60;3.33;;;;;;;13.44;100.00;95188.00;1026653;28;20030;-73
2021/08/07 00:24:00;;;;;;;3.13;2.80;;;;;;;13.41;100.00;95184.13;1030694;28;20500;-73
2021/08/07 00:24:30;;;;;;;6.00;3.60;;;;;;;13.38;100.00;95181.25;1038535;28;20438;-74
2021/08/07 00:25:01;;;;;;;4.30;3.08;;;;;;;13.40;100.00;95179.91;1038201;28;20029;-71
2021/08/07 00:25:31;;;;;;;7.93;3.20;;;;;;;13.43;100.00;95181.16;1030776;28;20070;-71
2021/08/07 00:26:02;;;;;;;6.15;3.10;;;;;;;13.44;100.00;95191.41;1030728;28;20028;-71
2021/08/07 00:26:32;;;;;;;4.25;3.38;;;;;;;13.44;100.00;95183.50;1030427;28;20034;-68
2021/08/07 00:27:03;;;;;;;4.07;3.17;;;;;;;13.37;100.00;95177.06;1030765;28;20076;-71
2021/08/07 00:27:33;;;;;;;6.53;3.60;;;;;;;13.45;100.00;95176.41;1034824;28;20026;-71
2021/08/07 00:28:03;;;;;;;5.60;2.95;;;;;;;13.44;100.00;95180.09;1030748;28;20031;-71
2021/08/07 00:28:34;;;;;;;5.53;3.40;;;;;;;13.42;100.00;95177.75;1030934;28;20065;-72
2021/08/07 00:29:04;;;;;;;5.63;2.88;;;;;;;13.42;100.00;95183.03;1030730;28;20065;-72
2021/08/07 00:29:35;;;;;;;3.80;2.70;;;;;;;13.37;100.00;95175.22;1039167;28;20083;-72
2021/08/07 00:30:06;;;;;;;4.80;3.28;;;;;;;13.40;100.00;95173.84;1042864;28;20062;-72
2021/08/07 00:30:36;;;;;;;5.07;3.20;;;;;;;13.38;100.00;95179.44;1031160;28;20037;-72
2021/08/07 00:31:07;;;;;;;4.60;3.28;;;;;;;13.38;100.00;95171.53;1034878;28;20030;-72
2021/08/07 00:31:37;;;;;;;5.22;3.15;;;;;;;13.41;100.00;95181.47;1038562;28;20069;-71
2021/08/07 00:32:08;;;;;;;5.93;3.22;;;;;;;13.40;100.00;95179.13;1038470;28;20021;-71
2021/08/07 00:32:38;;;;;;;5.68;3.05;;;;;;;13.40;100.00;95176.47;1038996;28;20014;-72
2021/08/07 00:33:09;;;;;;;5.07;3.03;;;;;;;13.40;100.00;95179.91;1034550;28;20021;-72
2021/08/07 00:33:39;;;;;;;4.35;3.10;;;;;;;13.40;100.00;95181.75;1034927;28;20025;-72
2021/08/07 00:34:10;;;;;;;4.93;3.10;;;;;;;13.37;100.00;95169.94;1039005;28;20025;-73
2021/08/07 00:34:40;;;;;;;4.75;3.40;;;;;;;13.38;100.00;95170.72;1042884;28;20009;-71
2021/08/07 00:35:10;;;;;;;6.57;3.42;;;;;;;13.42;100.00;95177.75;1030668;28;20038;-71
2021/08/07 00:35:41;;;;;;;9.30;3.22;;;;;;;13.42;100.00;95172.47;1030898;28;20030;-72
2021/08/07 00:36:11;;;;;;;5.68;3.28;;;;;;;13.44;100.00;95177.44;1031014;28;20648;-69
2021/08/07 00:36:42;;;;;;;5.03;3.38;;;;;;;13.46;100.00;95179.81;1037496;28;20041;-72
2021/08/07 00:37:12;;;;;;;5.65;3.28;;;;;;;13.46;100.00;95175.31;1034761;28;20013;-71
2021/08/07 00:37:43;;;;;;;5.30;3.05;;;;;;;13.44;100.00;95178.22;1029165;28;20026;-71
2021/08/07 00:38:13;;;;;;;5.93;3.72;;;;;;;13.47;100.00;95181.34;1034186;28;20018;-71
2021/08/07 00:38:44;;;;;;;4.40;2.90;;;;;;;13.46;100.00;95182.44;1035800;28;20018;-71
2021/08/07 00:39:14;;;;;;;4.80;3.10;;;;;;;13.46;100.00;95182.44;1034748;28;20040;-70
2021/08/07 00:39:45;;;;;;;2.97;2.67;;;;;;;13.42;100.00;95169.84;1036484;28;20068;-71
2021/08/07 00:40:15;;;;;;;5.43;3.80;;;;;;;13.49;100.00;95179.22;1035798;28;20042;-71
2021/08/07 00:40:46;;;;;;;4.53;3.15;;;;;;;13.49;100.00;95179.22;1031956;28;20566;-71
2021/08/07 00:41:16;;;;;;;6.00;3.05;;;;;;;13.48;100.00;95169.72;1031719;28;20030;-71
2021/08/07 00:41:46;;;;;;;6.18;3.10;;;;;;;13.49;100.00;95172.09;1031303;28;20018;-69
2021/08/07 00:42:17;;;;;;;3.53;2.92;;;;;;;13.48;100.00;95169.72;1036384;28;20036;-71
2021/08/07 00:42:47;;;;;;;5.25;3.22;;;;;;;13.45;100.00;95160.59;1044356;28;20056;-71
2021/08/07 00:43:18;;;;;;;5.25;3.40;;;;;;;13.48;100.00;95164.47;1040253;28;20034;-71
2021/08/07 00:43:48;;;;;;;4.28;3.33;;;;;;;13.46;100.00;95162.13;1031829;28;20073;-71
2021/08/07 00:44:19;;;;;;;3.72;2.85;;;;;;;13.47;100.00;95163.69;1036367;28;20029;-70
2021/08/07 00:44:49;;;;;;;4.65;2.72;;;;;;;13.43;100.00;95154.81;1042625;28;20024;-71
2021/08/07 00:45:19;;;;;;;7.53;3.33;;;;;;;13.46;100.00;95156.09;1042828;28;20033;-71
2021/08/07 00:45:50;;;;;;;5.25;3.50;;;;;;;13.42;100.00;95150.63;1041735;28;20024;-69
2021/08/07 00:46:20;;;;;;;4.03;3.33;;;;;;;13.46;100.00;95151.59;1040069;28;20037;-70
2021/08/07 00:46:51;;;;;;;5.45;3.58;;;;;;;13.41;100.00;95143.78;1035964;28;20080;-69
2021/08/07 00:47:21;;;;;;;5.15;2.97;;;;;;;13.48;100.00;95151.28;1035518;28;20851;-70
2021/08/07 00:47:52;;;;;;;4.32;2.95;;;;;;;13.48;100.00;95153.91;1034412;28;20030;-71
2021/08/07 00:48:22;;;;;;;4.18;3.20;;;;;;;13.47;100.00;95147.09;1035945;28;20041;-71
2021/08/07 00:48:53;;;;;;;3.60;3.28;;;;;;;13.47;100.00;95147.88;1036161;28;20409;-74
2021/08/07 00:49:23;;;;;;;7.00;2.85;;;;;;;13.44;100.00;95143.97;1039818;28;20498;-72
2021/08/07 00:49:54;;;;;;;6.75;3.88;;;;;;;13.40;100.00;95131.69;1044198;28;20738;-73
2021/08/07 00:50:24;;;;;;;4.60;3.10;;;;;;;13.44;100.00;95143.19;1041396;28;20022;-74
2021/08/07 00:50:55;;;;;;;7.00;3.10;;;;;;;13.37;100.00;95133.03;1039482;28;20076;-73
2021/08/07 00:51:25;;;;;;;6.28;2.80;;;;;;;13.35;100.00;95123.91;1036154;28;20084;-73
2021/08/07 00:51:56;;;;;;;5.55;3.10;;;;;;;13.42;100.00;95143.50;1026829;28;20046;-73
2021/08/07 00:52:26;;;;;;;6.82;3.40;;;;;;;13.42;100.00;95146.13;1030587;28;20054;-73
2021/08/07 00:52:56;;;;;;;6.20;3.10;;;;;;;13.44;100.00;95149.22;1032139;28;20050;-73
2021/08/07 00:53:27;;;;;;;5.32;3.13;;;;;;;13.42;100.00;95145.34;1033420;28;20022;-73
2021/08/07 00:53:58;;;;;;;3.10;2.53;;;;;;;13.45;100.00;95139.50;1036033;28;20018;-73
2021/08/07 00:54:29;;;;;;;5.43;2.80;;;;;;;13.39;100.00;95128.28;1031811;28;20037;-73
2021/08/07 00:54:59;;;;;;;5.45;2.55;;;;;;;13.44;100.00;95141.31;1036326;28;20284;-73
2021/08/07 00:55:30;;;;;;;4.57;2.92;;;;;;;13.41;100.00;95134.03;1040425;28;20033;-73
2021/08/07 00:56:00;;;;;;;3.42;2.72;;;;;;;13.49;100.00;95147.59;1040161;28;20053;-74
2021/08/07 00:56:31;;;;;;;4.22;3.05;;;;;;;13.47;100.00;95145.22;1036178;28;20037;-71
2021/08/07 00:57:01;;;;;;;5.20;3.00;;;;;;;13.49;100.00;95144.97;1032030;28;20030;-73
2021/08/07 00:57:32;;;;;;;4.70;2.75;;;;;;;13.45;100.00;95147.41;1039601;28;20112;-72
2021/08/07 00:58:02;;;;;;;3.92;2.90;;;;;;;13.45;100.00;95139.50;1031866;28;20030;-73
2021/08/07 00:58:33;;;;;;;6.25;3.30;;;;;;;13.43;100.00;95136.38;1035054;28;20026;-73
2021/08/07 00:59:03;;;;;;;4.13;2.75;;;;;;;13.39;100.00;95128.28;1038787;28;20041;-72
2021/08/07 00:59:33;;;;;;;5.95;3.00;;;;;;;13.41;100.00;95135.88;1036400;28;20109;-71
2021/08/07 01:00:05;;;;;;;3.67;2.90;;;;;;;13.46;100.00;95130.50;1039785;28;20036;-73
2021/08/07 01:00:36;;;;;;;4.93;2.97;;;;;;;13.46;100.00;95138.41;1040018;28;20033;-71
2021/08/07 01:01:11;;;;;;;5.38;2.60;;;;;;;13.48;100.00;95130.19;1038165;28;20307;-69
2021/08/07 01:01:46;;;;;;;4.55;2.88;;;;;;;13.48;100.00;95130.19;1038695;28;20060;-68
2021/08/07 01:02:19;;;;;;;5.72;3.10;;;;;;;13.46;100.00;95135.00;1031599;28;20774;-70
2021/08/07 01:03:25;;;;;;;5.47;2.83;;;;;;;13.46;100.00;95135.78;1036193;28;20273;-71
2021/08/07 01:03:55;;;;;;;6.85;2.83;;;;;;;13.36;100.00;95123.59;1028295;28;20030;-74
2021/08/07 01:04:28;;;;;;;5.25;3.08;;;;;;;13.44;100.00;95130.00;1030044;28;20278;-73
2021/08/07 01:05:05;;;;;;;7.70;3.22;;;;;;;13.44;100.00;95128.16;1040203;28;20040;-73
2021/08/07 01:05:48;;;;;;;7.15;3.30;;;;;;;13.41;100.00;95120.88;1037171;28;20288;-73
2021/08/07 01:06:44;;;;;;;5.43;2.92;;;;;;;13.43;100.00;95125.81;1029512;28;20266;-72
2021/08/07 01:07:43;;;;;;;5.70;3.17;;;;;;;13.42;100.00;95119.78;1029694;28;20269;-74
2021/08/07 01:08:18;;;;;;;5.00;3.00;;;;;;;13.36;100.00;95109.63;1040840;28;20278;-71
2021/08/07 01:09:21;;;;;;;4.03;3.00;;;;;;;13.43;100.00;95116.06;1036688;28;20261;-74
2021/08/07 01:10:14;;;;;;;6.88;2.90;;;;;;;13.43;100.00;95117.91;1035329;28;20296;-74
2021/08/07 01:11:06;;;;;;;7.00;3.15;;;;;;;13.42;100.00;95109.22;1032739;28;20304;-74
2021/08/07 01:11:54;;;;;;;3.58;3.20;;;;;;;13.43;100.00;95110.78;1044196;28;20252;-74
2021/08/07 01:12:48;;;;;;;5.13;3.30;;;;;;;13.43;100.00;95112.66;1037097;28;20420;-74
2021/08/07 01:13:28;;;;;;;4.45;3.00;;;;;;;13.42;100.00;95109.22;1036049;28;20273;-74
2021/08/07 01:13:59;;;;;;;6.13;3.38;;;;;;;13.44;100.00;95103.66;1030400;28;20269;-74
2021/08/07 01:14:37;;;;;;;5.10;2.95;;;;;;;13.41;100.00;95099.78;1034126;28;20326;-74
2021/08/07 01:15:08;;;;;;;5.82;3.33;;;;;;;13.39;100.00;95098.50;1029597;28;20699;-73
2021/08/07 01:15:41;;;;;;;3.60;3.00;;;;;;;13.41;100.00;95097.16;1032102;28;20286;-75
2021/08/07 01:16:17;;;;;;;4.22;3.28;;;;;;;13.47;100.00;95099.66;1035775;28;20276;-74
2021/08/07 01:16:48;;;;;;;6.38;3.38;;;;;;;13.47;100.00;95097.03;1040159;28;20259;-71
2021/08/07 01:17:24;;;;;;;3.67;2.67;;;;;;;13.51;100.00;95101.38;1040368;28;20279;-71
2021/08/07 01:17:54;;;;;;;7.15;3.10;;;;;;;13.53;100.00;95103.75;1037691;28;20014;-68
2021/08/07 01:18:25;;;;;;;3.42;3.03;;;;;;;13.50;100.00;95104.34;1033148;28;20281;-71
2021/08/07 01:18:56;;;;;;;6.28;3.60;;;;;;;13.53;100.00;95093.22;1035188;28;20029;-70
2021/08/07 01:19:29;;;;;;;4.57;3.03;;;;;;;13.59;100.00;95105.97;1033672;28;20026;-70
2021/08/07 01:20:03;;;;;;;5.65;3.22;;;;;;;13.57;100.00;95107.34;1036929;28;20276;-68
2021/08/07 01:20:35;;;;;;;3.45;3.15;;;;;;;13.55;100.00;95106.88;1036350;28;20277;-70
2021/08/07 01:21:07;;;;;;;5.60;2.97;;;;;;;13.56;100.00;95103.16;1031790;28;20309;-67
2021/08/07 01:21:41;;;;;;;5.18;3.05;;;;;;;13.59;100.00;95110.47;1036158;28;21167;-70
2021/08/07 01:22:11;;;;;;;5.32;2.80;;;;;;;13.59;100.00;95108.63;1036225;28;20391;-67
2021/08/07 01:22:48;;;;;;;3.28;2.97;;;;;;;13.59;100.00;95115.75;1036145;28;20256;-71
2021/08/07 01:23:22;;;;;;;5.57;2.85;;;;;;;13.60;100.00;95119.94;1037396;28;20037;-70
2021/08/07 01:23:55;;;;;;;6.90;2.90;;;;;;;13.62;100.00;95117.78;1032234;28;20270;-69
2021/08/07 01:24:35;;;;;;;4.13;2.90;;;;;;;13.63;100.00;95121.97;1037862;28;20267;-69
2021/08/07 01:25:07;;;;;;;6.07;2.90;;;;;;;13.62;100.00;95118.56;1030365;28;20315;-70
2021/08/07 01:25:47;;;;;;;4.75;3.03;;;;;;;13.61;100.00;95110.94;1034597;28;20029;-70
2021/08/07 01:26:18;;;;;;;5.63;2.72;;;;;;;13.64;100.00;95118.25;1028244;28;20105;-70
2021/08/07 01:27:11;;;;;;;6.57;2.97;;;;;;;13.64;100.00;95112.97;1037632;28;20029;-70
2021/08/07 01:27:41;;;;;;;4.43;2.72;;;;;;;13.60;100.00;95104.91;1033329;28;20439;-70
2021/08/07 01:28:12;;;;;;;5.60;2.83;;;;;;;13.56;100.00;95103.16;1042976;28;20058;-70
2021/08/07 01:28:43;;;;;;;6.53;2.70;;;;;;;13.63;100.00;95108.81;1031956;28;20022;-67
2021/08/07 01:29:14;;;;;;;5.15;3.20;;;;;;;13.64;100.00;95113.75;1032054;28;20101;-70
2021/08/07 01:29:45;;;;;;;4.35;2.80;;;;;;;13.59;100.00;95102.56;1036017;28;20114;-68
2021/08/07 01:30:17;;;;;;;6.50;3.10;;;;;;;13.59;100.00;95110.47;1036066;28;20056;-70
2021/08/07 01:30:48;;;;;;;4.53;2.70;;;;;;;13.57;100.00;95105.47;1044209;28;20521;-70
2021/08/07 01:31:20;;;;;;;7.20;3.40;;;;;;;13.62;100.00;95112.53;1050839;28;20035;-70
2021/08/07 01:31:52;;;;;;;5.03;3.42;;;;;;;13.63;100.00;95114.84;1039392;28;20264;-69
2021/08/07 01:32:24;;;;;;;3.95;2.97;;;;;;;13.62;100.00;95115.16;1040113;28;20641;-70
2021/08/07 01:32:55;;;;;;;8.45;3.42;;;;;;;13.60;100.00;95114.66;1038970;28;20067;-71
2021/08/07 01:33:26;;;;;;;7.57;3.65;;;;;;;13.60;100.00;95118.06;1044302;28;20028;-70
2021/08/07 01:33:57;;;;;;;15.85;3.80;;;;;;;13.60;100.00;95114.66;1036779;28;20025;-71
2021/08/07 01:34:27;;;;;;;8.07;3.13;;;;;;;13.57;100.00;95117.88;1036124;28;20113;-70
2021/08/07 01:34:58;;;;;;;5.15;2.80;;;;;;;13.54;100.00;95110.56;1040228;28;20123;-71
2021/08/07 01:35:28;;;;;;;6.57;2.90;;;;;;;13.56;100.00;95116.34;1035324;28;20117;-71
2021/08/07 01:35:59;;;;;;;8.70;3.50;;;;;;;13.54;100.00;95108.72;1027925;28;20025;-71
2021/08/07 01:36:31;;;;;;;5.30;3.33;;;;;;;13.55;100.00;95106.88;1040319;28;20139;-70
2021/08/07 01:37:01;;;;;;;6.00;3.17;;;;;;;13.51;100.00;95100.63;1035814;28;20121;-71
2021/08/07 01:37:32;;;;;;;5.90;3.05;;;;;;;13.55;100.00;95118.19;1036118;28;20128;-70
2021/08/07 01:38:02;;;;;;;7.70;3.20;;;;;;;13.58;100.00;95114.97;1032227;28;20027;-70
2021/08/07 01:38:32;;;;;;;4.88;2.60;;;;;;;13.56;100.00;95109.19;1048290;28;20020;-70
2021/08/07 01:39:03;;;;;;;4.78;3.00;;;;;;;13.58;100.00;95106.25;1039037;28;20035;-70
2021/08/07 01:39:33;;;;;;;4.25;3.20;;;;;;;13.57;100.00;95109.97;1036052;28;20022;-71
2021/08/07 01:40:04;;;;;;;8.23;3.53;;;;;;;13.57;100.00;95104.72;1040011;28;20014;-71
2021/08/07 01:40:35;;;;;;;6.93;3.33;;;;;;;13.53;100.00;95096.63;1035795;28;20071;-70
2021/08/07 01:41:15;;;;;;;4.45;2.80;;;;;;;13.57;100.00;95104.72;1032239;28;20110;-70
2021/08/07 01:41:46;;;;;;;5.28;3.15;;;;;;;13.56;100.00;95096.03;1038478;28;20014;-70
2021/08/07 01:42:16;;;;;;;4.43;3.05;;;;;;;13.56;100.00;95103.16;1042020;28;20025;-70
2021/08/07 01:42:47;;;;;;;8.30;3.15;;;;;;;13.56;100.00;95101.28;1037549;28;20080;-70
2021/08/07 01:43:17;;;;;;;7.43;3.10;;;;;;;13.57;100.00;95100.22;1036123;28;20026;-70
2021/08/07 01:43:48;;;;;;;5.90;3.10;;;;;;;13.58;100.00;95101.78;1036336;28;20036;-69
2021/08/07 01:44:18;;;;;;;5.07;3.20;;;;;;;13.57;100.00;95099.44;1044306;28;20132;-69
2021/08/07 01:44:49;;;;;;;8.65;2.75;;;;;;;13.58;100.00;95101.78;1046465;28;20594;-68
2021/08/07 01:45:19;;;;;;;536.45;55.30;;;;;;;13.58;100.00;95099.16;1041506;28;20711;-69
2021/08/07 01:45:50;;;;;;;1469.20;307.60;;;;;;;13.53;100.00;95093.22;1045436;28;20121;-68
2021/08/07 01:46:20;;;;;;;978.63;176.70;;;;;;;13.59;100.00;95094.66;1043747;28;20104;-69
2021/08/07 01:47:19;;;;;;;500.05;87.30;;;;;;;13.61;100.00;95103.03;1036023;28;20026;-67
2021/08/07 01:48:02;;;;;;;1999.90;999.90;;;;;;;13.54;100.00;95095.53;1032221;28;20096;-69
2021/08/07 01:48:45;;;;;;;142.75;81.28;;;;;;;13.59;100.00;95105.97;1029215;28;20280;-69
2021/08/07 01:49:18;;;;;;;149.48;134.07;;;;;;;13.56;100.00;95098.66;1030685;28;20504;-70
2021/08/07 01:50:21;;;;;;;240.93;180.13;;;;;;;13.50;100.00;95093.78;1035851;28;20033;-70
2021/08/07 01:51:02;;;;;;;185.77;94.35;;;;;;;13.57;100.00;95091.53;1038260;28;20021;-70
2021/08/07 01:51:40;;;;;;;939.72;309.63;;;;;;;13.52;100.00;95086.38;1031732;28;20097;-70
2021/08/07 01:52:14;;;;;;;4.00;1.42;;;;;;;13.58;100.00;95101.00;1026279;28;20035;-73
2021/08/07 01:52:46;;;;;;;6.68;2.97;;;;;;;13.59;100.00;95097.28;1034612;28;20022;-71
2021/08/07 01:53:25;;;;;;;13.20;4.18;;;;;;;13.59;100.00;95103.34;1033083;28;20041;-69
2021/08/07 01:53:56;;;;;;;114.85;13.18;;;;;;;13.52;100.00;95094.28;1035406;28;20746;-70
2021/08/07 01:54:31;;;;;;;1768.25;139.23;;;;;;;13.55;100.00;95102.38;1034715;28;20029;-69
2021/08/07 01:55:09;;;;;;;520.17;76.22;;;;;;;13.59;100.00;95102.56;1037751;28;21223;-71
2021/08/07 01:55:49;;;;;;;24.10;5.45;;;;;;;13.59;100.00;95108.63;1039233;28;20029;-70
2021/08/07 01:56:25;;;;;;;4.68;3.13;;;;;;;13.58;100.00;95112.34;1035144;28;20596;-70
2021/08/07 01:56:55;;;;;;;189.60;11.90;;;;;;;13.51;100.00;95103.25;1037389;28;20083;-71
2021/08/07 01:57:27;;;;;;;6.55;3.40;;;;;;;13.55;100.00;95112.16;1037795;28;20087;-70
2021/08/07 01:58:07;;;;;;;118.20;9.38;;;;;;;13.58;100.00;95114.97;1031243;28;20095;-71
2021/08/07 01:59:04;;;;;;;5.20;2.88;;;;;;;13.59;100.00;95115.75;1032638;28;20352;-68
2021/08/07 01:59:35;;;;;;;8.68;3.40;;;;;;;13.53;100.00;95106.38;1032527;28;20034;-71
2021/08/07 02:00:06;;;;;;;31.33;6.35;;;;;;;13.58;100.00;95108.91;1035178;28;20308;-71
2021/08/07 02:00:39;;;;;;;5.55;3.03;;;;;;;13.51;100.00;95103.25;1031000;28;20688;-70
2021/08/07 02:01:09;;;;;;;6.93;3.35;;;;;;;13.57;100.00;95109.97;1035168;28;20053;-70
2021/08/07 02:01:40;;;;;;;4.57;3.20;;;;;;;13.54;100.00;95107.94;1034857;28;20032;-66
2021/08/07 02:02:10;;;;;;;5.05;3.45;;;;;;;13.57;100.00;95104.72;1031066;28;20030;-71
2021/08/07 02:02:41;;;;;;;7.85;3.10;;;;;;;13.56;100.00;95103.16;1029776;28;20492;-70
2021/08/07 02:03:11;;;;;;;4.78;2.92;;;;;;;13.53;100.00;95106.38;1027401;28;20051;-70
2021/08/07 02:03:42;;;;;;;5.68;3.33;;;;;;;13.50;100.00;95105.13;1027450;28;20023;-70
2021/08/07 02:04:13;;;;;;;6.10;2.60;;;;;;;13.48;100.00;95107.28;1027245;28;20464;-70
2021/08/07 02:04:44;;;;;;;5.10;3.00;;;;;;;13.52;100.00;95113.50;1034413;28;20523;-71
2021/08/07 02:05:16;;;;;;;3.65;2.80;;;;;;;13.52;100.00;95110.09;1031156;28;20260;-70
2021/08/07 02:05:47;;;;;;;4.97;2.97;;;;;;;13.50;100.00;95109.59;1035219;28;20018;-71
2021/08/07 02:06:18;;;;;;;4.40;2.97;;;;;;;13.51;100.00;95113.78;1034025;28;20069;-70
2021/08/07 02:06:48;;;;;;;3.70;3.03;;;;;;;13.49;100.00;95103.56;1039239;28;20017;-71
2021/08/07 02:07:19;;;;;;;5.53;3.72;;;;;;;13.49;100.00;95102.78;1031178;28;20551;-71
2021/08/07 02:07:50;;;;;;;3.63;2.55;;;;;;;13.50;100.00;95101.69;1032103;28;20026;-71
2021/08/07 02:08:21;;;;;;;6.90;3.15;;;;;;;13.43;100.00;95097.59;1027315;28;20460;-71
2021/08/07 02:08:51;;;;;;;114.40;24.38;;;;;;;13.49;100.00;95100.16;1027257;28;20031;-71
2021/08/07 02:09:22;;;;;;;5.68;3.05;;;;;;;13.46;100.00;95098.09;1030745;28;20020;-68
2021/08/07 02:09:52;;;;;;;7.22;3.10;;;;;;;13.46;100.00;95100.75;1035175;28;20033;-71
2021/08/07 02:10:23;;;;;;;4.88;3.30;;;;;;;13.47;100.00;95100.44;1035320;28;20594;-68
2021/08/07 02:10:53;;;;;;;3.97;2.88;;;;;;;13.42;100.00;95095.28;1031246;28;20093;-71
2021/08/07 02:11:24;;;;;;;7.22;5.97;;;;;;;13.40;100.00;95095.56;1030915;28;20018;-70
2021/08/07 02:11:54;;;;;;;4.00;3.30;;;;;;;13.41;100.00;95107.69;1036921;28;20009;-69
2021/08/07 02:12:25;;;;;;;6.25;3.13;;;;;;;13.36;100.00;95093.81;1039199;28;20029;-71
2021/08/07 02:12:55;;;;;;;6.57;3.20;;;;;;;13.36;100.00;95089.34;1032044;28;20029;-71
2021/08/07 02:13:26;;;;;;;54.55;6.40;;;;;;;13.37;100.00;95098.00;1031096;28;20027;-70
2021/08/07 02:13:56;;;;;;;6.22;2.95;;;;;;;13.32;100.00;95093.63;1035307;28;20097;-71
2021/08/07 02:14:27;;;;;;;5.40;3.58;;;;;;;13.30;100.00;95095.78;1032907;28;20464;-71
2021/08/07 02:14:57;;;;;;;3.17;2.85;;;;;;;13.25;100.00;95090.63;1035230;28;20473;-70
2021/08/07 02:15:28;;;;;;;104.82;46.13;;;;;;;13.26;100.00;95099.31;1031105;28;20049;-72
2021/08/07 02:15:58;;;;;;;3.78;3.25;;;;;;;13.26;100.00;95094.03;1031176;28;20018;-70
2021/08/07 02:16:29;;;;;;;240.00;174.90;;;;;;;13.22;100.00;95088.56;1033782;28;20026;-70
2021/08/07 02:17:00;;;;;;;1999.90;999.90;;;;;;;13.21;100.00;95094.88;1031531;28;20014;-70
2021/08/07 02:17:30;;;;;;;52.00;10.63;;;;;;;13.20;100.00;95088.06;1039169;28;20487;-70
2021/08/07 02:18:01;;;;;;;6.07;3.75;;;;;;;13.19;100.00;95094.41;1030108;28;20504;-71
2021/08/07 02:18:32;;;;;;;489.52;125.75;;;;;;;13.16;100.00;95090.50;1031113;28;20089;-71
2021/08/07 02:19:02;;;;;;;9.80;3.40;;;;;;;13.13;100.00;95092.94;1023260;29;20031;-70
2021/08/07 02:19:33;;;;;;;4.05;2.85;;;;;;;13.15;100.00;95096.06;1028505;28;20269;-70
2021/08/07 02:20:03;;;;;;;6.72;3.28;;;;;;;13.11;100.00;95089.81;1030971;28;20030;-68
2021/08/07 02:20:34;;;;;;;3.97;3.10;;;;;;;13.14;100.00;95097.13;1031083;28;20459;-69
2021/08/07 02:21:04;;;;;;;4.45;2.72;;;;;;;13.14;100.00;95092.63;1043523;28;20028;-67
2021/08/07 02:21:36;;;;;;;5.30;3.28;;;;;;;13.18;100.00;95092.84;1041955;28;20032;-70
2021/08/07 02:22:06;;;;;;;8.32;3.33;;;;;;;13.11;100.00;95084.53;1034379;28;20018;-69
2021/08/07 02:22:37;;;;;;;5.25;3.08;;;;;;;13.09;100.00;95082.22;1035276;28;20627;-71
2021/08/07 02:23:07;;;;;;;5.28;3.20;;;;;;;13.18;100.00;95096.25;1030611;28;20045;-71
2021/08/07 02:23:38;;;;;;;7.53;3.25;;;;;;;13.16;100.00;95098.41;1031112;28;20093;-71
2021/08/07 02:24:09;;;;;;;4.22;3.17;;;;;;;13.16;100.00;95095.75;1027370;28;20015;-71
2021/08/07 02:24:39;;;;;;;4.75;3.17;;;;;;;13.18;100.00;95098.13;1028654;28;20253;-70
2021/08/07 02:25:11;;;;;;;7.68;2.90;;;;;;;13.18;100.00;95098.91;1027408;28;20031;-70
2021/08/07 02:25:42;;;;;;;4.80;3.17;;;;;;;13.20;100.00;95101.22;1031033;28;20457;-71
2021/08/07 02:26:12;;;;;;;6.53;2.97;;;;;;;13.18;100.00;95103.38;1023674;28;20262;-70
2021/08/07 02:26:43;;;;;;;6.15;3.17;;;;;;;13.19;100.00;95097.81;1038039;28;20025;-70
2021/08/07 02:27:14;;;;;;;5.38;3.10;;;;;;;13.19;100.00;95102.31;1035380;28;20620;-71
2021/08/07 02:27:44;;;;;;;3.53;3.05;;;;;;;13.17;100.00;95099.19;1035021;28;20726;-71
2021/08/07 02:28:15;;;;;;;11.95;3.78;;;;;;;13.17;100.00;95097.31;1026519;28;20301;-71
2021/08/07 02:28:45;;;;;;;6.15;3.53;;;;;;;13.15;100.00;95096.06;1031541;28;20599;-70
2021/08/07 02:29:16;;;;;;;23.63;4.65;;;;;;;13.16;100.00;95089.72;1031101;28;20302;-70
2021/08/07 02:29:46;;;;;;;9.38;3.20;;;;;;;13.18;100.00;95100.75;1040591;28;20048;-70
2021/08/07 02:30:17;;;;;;;16.40;3.45;;;;;;;13.14;100.00;95092.63;1043395;28;20028;-69